Time;durP1;ratioP1;P1;durP2;ratioP2;P2;SDS_P1;SDS_P2;PMS_P1;PMS_P2;Temp;Humidity;BMP_temperature;BMP_pressure;BME280_temperature;BME280_humidity;BME280_pressure;Samples;Min_cycle;Max_cycle;Signal;HPM_P1;HPM_P2
2023/06/17 00:01:17;;;;;;;6.43;5.23;;;17.00;99.90;;;;;;5015639;28;20229;-87
2023/06/17 00:03:45;;;;;;;8.60;6.40;;;17.00;99.90;;;;;;5024287;28;20212;-86
2023/06/17 00:06:12;;;;;;;8.37;5.93;;;17.10;99.90;;;;;;5024122;28;20614;-85
2023/06/17 00:08:39;;;;;;;8.57;5.80;;;17.00;99.90;;;;;;5038102;28;20269;-87
2023/06/17 00:11:06;;;;;;;8.00;5.63;;;16.80;99.90;;;;;;5043777;28;20264;-86
2023/06/17 00:13:33;;;;;;;9.03;6.13;;;16.80;99.90;;;;;;5021484;28;20272;-86
2023/06/17 00:16:04;;;;;;;9.37;6.20;;;16.80;99.90;;;;;;5041952;28;20283;-86
2023/06/17 00:18:32;;;;;;;7.20;5.40;;;16.80;99.90;;;;;;5028645;28;20264;-85
2023/06/17 00:20:59;;;;;;;8.07;6.00;;;16.70;99.90;;;;;;5024419;28;20247;-85
2023/06/17 00:23:26;;;;;;;7.93;5.93;;;16.70;99.90;;;;;;5051819;28;20217;-85
2023/06/17 00:25:53;;;;;;;8.97;6.07;;;16.70;99.90;;;;;;5055562;28;20256;-87
2023/06/17 00:28:20;;;;;;;8.63;5.70;;;16.60;99.90;;;;;;5052761;28;20315;-86
2023/06/17 00:30:47;;;;;;;8.50;6.17;;;16.60;99.90;;;;;;5030070;28;20261;-85
2023/06/17 00:33:15;;;;;;;8.77;6.47;;;16.50;99.90;;;;;;5039872;28;20241;-86
2023/06/17 00:35:42;;;;;;;10.27;6.67;;;16.50;99.90;;;;;;5041605;28;20203;-86
2023/06/17 00:38:14;;;;;;;7.53;6.00;;;16.40;99.90;;;;;;5036390;28;20231;-86
2023/06/17 00:40:42;;;;;;;10.20;6.17;;;16.40;99.90;;;;;;5033523;28;20247;-87
2023/06/17 00:43:11;;;;;;;8.30;6.70;;;16.40;99.90;;;;;;5031582;28;20293;-84
2023/06/17 00:45:41;;;;;;;10.27;6.47;;;16.40;99.90;;;;;;5046902;28;20212;-84
2023/06/17 00:48:09;;;;;;;11.60;6.53;;;16.30;99.90;;;;;;5046623;28;20225;-87
2023/06/17 00:50:37;;;;;;;9.47;6.67;;;16.30;99.90;;;;;;5055696;28;20228;-88
2023/06/17 00:53:05;;;;;;;8.93;6.70;;;16.20;99.90;;;;;;5046445;28;20214;-85
2023/06/17 00:55:33;;;;;;;8.50;6.90;;;16.20;99.90;;;;;;5050718;28;20288;-87
2023/06/17 00:58:01;;;;;;;10.37;7.20;;;16.10;99.90;;;;;;5043557;28;20599;-86
2023/06/17 01:00:28;;;;;;;8.57;6.40;;;16.10;99.90;;;;;;5043186;28;20600;-87
2023/06/17 01:02:58;;;;;;;10.03;6.33;;;16.00;99.90;;;;;;5024462;28;20210;-85
2023/06/17 01:05:27;;;;;;;8.87;6.50;;;15.90;99.90;;;;;;5049611;28;20200;-85
2023/06/17 01:08:19;;;;;;;9.03;5.80;;;16.00;99.90;;;;;;5048621;28;20247;-86
2023/06/17 01:11:04;;;;;;;9.23;6.50;;;15.90;99.90;;;;;;5046384;28;20271;-87
2023/06/17 01:13:36;;;;;;;11.33;7.03;;;15.90;99.90;;;;;;5023732;28;20216;-85
2023/06/17 01:16:09;;;;;;;11.13;6.83;;;15.80;99.90;;;;;;5046259;28;20227;-86
2023/06/17 01:18:37;;;;;;;10.83;6.90;;;15.80;99.90;;;;;;5035602;28;20567;-86
2023/06/17 01:21:04;;;;;;;9.77;7.07;;;15.80;99.90;;;;;;5039968;28;20677;-86
2023/06/17 01:23:34;;;;;;;11.00;7.30;;;15.70;99.90;;;;;;5043637;28;20221;-88
2023/06/17 01:26:02;;;;;;;11.33;6.97;;;15.80;99.90;;;;;;5046520;28;20212;-83
2023/06/17 01:28:30;;;;;;;10.50;7.17;;;15.70;99.90;;;;;;5046182;28;20640;-86
2023/06/17 01:30:59;;;;;;;9.20;7.00;;;15.60;99.90;;;;;;5026908;28;20271;-85
2023/06/17 01:33:26;;;;;;;8.03;6.60;;;15.60;99.90;;;;;;5035185;28;20218;-85
2023/06/17 01:36:14;;;;;;;10.23;7.17;;;15.60;99.90;;;;;;5035977;28;20205;-86
2023/06/17 01:38:44;;;;;;;9.07;6.70;;;15.60;99.90;;;;;;5051397;28;20312;-85
2023/06/17 01:41:23;;;;;;;12.03;7.73;;;15.60;99.90;;;;;;5045589;28;20198;-87
2023/06/17 01:43:53;;;;;;;8.93;7.07;;;15.60;99.90;;;;;;5035487;28;20214;-84
2023/06/17 01:46:21;;;;;;;9.43;7.43;;;15.60;99.90;;;;;;5020685;28;20214;-83
2023/06/17 01:48:48;;;;;;;10.77;7.37;;;15.50;99.90;;;;;;5024130;28;20226;-84
2023/06/17 01:51:15;;;;;;;11.33;7.47;;;15.60;99.90;;;;;;5013172;28;20212;-87
2023/06/17 01:53:43;;;;;;;10.43;7.50;;;15.40;99.90;;;;;;5039616;28;20229;-85
2023/06/17 01:56:10;;;;;;;9.37;7.30;;;15.50;99.90;;;;;;5025126;28;20562;-85
2023/06/17 01:58:38;;;;;;;13.23;7.63;;;15.40;99.90;;;;;;5023162;28;20212;-86
2023/06/17 02:01:10;;;;;;;9.97;7.00;;;15.40;99.90;;;;;;5021103;28;20203;-84
2023/06/17 02:03:38;;;;;;;9.53;7.57;;;15.40;99.90;;;;;;5036657;28;20206;-86
2023/06/17 02:06:05;;;;;;;10.27;7.77;;;15.30;99.90;;;;;;5029436;28;20611;-85
2023/06/17 02:08:34;;;;;;;11.73;7.17;;;15.40;99.90;;;;;;5016483;28;20244;-86
2023/06/17 02:11:02;;;;;;;12.17;7.47;;;15.30;99.90;;;;;;4997139;28;20301;-85
2023/06/17 02:13:29;;;;;;;9.30;7.63;;;15.30;99.90;;;;;;5029756;28;20206;-85
2023/06/17 02:15:56;;;;;;;10.17;7.03;;;15.20;99.90;;;;;;5022801;28;20265;-86
2023/06/17 02:18:24;;;;;;;11.53;8.07;;;15.20;99.90;;;;;;5042649;28;20809;-85
2023/06/17 02:20:52;;;;;;;12.33;8.20;;;15.10;99.90;;;;;;5020562;28;20508;-84
2023/06/17 02:23:23;;;;;;;13.33;7.70;;;15.20;99.90;;;;;;5035504;28;20221;-86
2023/06/17 02:25:50;;;;;;;10.80;7.43;;;15.10;99.90;;;;;;5012690;28;20206;-85
2023/06/17 02:28:18;;;;;;;10.83;8.20;;;15.10;99.90;;;;;;5020674;28;20226;-86
2023/06/17 02:30:45;;;;;;;12.53;7.77;;;15.00;99.90;;;;;;5021354;28;20206;-85
2023/06/17 02:33:17;;;;;;;10.20;7.23;;;15.10;99.90;;;;;;5014519;28;20207;-84
2023/06/17 02:35:46;;;;;;;9.33;7.50;;;15.20;99.90;;;;;;5021592;28;20206;-87
2023/06/17 02:38:14;;;;;;;11.07;7.67;;;15.00;99.90;;;;;;5044274;28;20214;-85
2023/06/17 02:40:41;;;;;;;11.23;8.23;;;15.00;99.90;;;;;;5030988;28;20289;-86
2023/06/17 02:43:08;;;;;;;12.73;7.93;;;14.80;99.90;;;;;;5036179;28;20268;-86
2023/06/17 02:45:35;;;;;;;10.50;7.57;;;14.90;99.90;;;;;;5013688;28;20203;-87
2023/06/17 02:48:05;;;;;;;11.17;7.63;;;14.90;99.90;;;;;;5020154;28;20269;-85
2023/06/17 02:50:35;;;;;;;11.10;7.67;;;14.90;99.90;;;;;;5023540;28;20206;-84
2023/06/17 02:53:04;;;;;;;11.27;7.87;;;14.80;99.90;;;;;;5024870;28;20222;-85
2023/06/17 02:55:38;;;;;;;10.00;7.53;;;14.80;99.90;;;;;;5030242;28;20218;-85
2023/06/17 02:58:08;;;;;;;12.83;8.77;;;14.80;99.90;;;;;;5031395;28;20242;-85
2023/06/17 03:00:36;;;;;;;12.30;8.77;;;14.70;99.90;;;;;;5025422;28;20275;-85
2023/06/17 03:03:03;;;;;;;13.73;8.67;;;14.70;99.90;;;;;;5022921;28;20233;-86
2023/06/17 03:05:30;;;;;;;12.07;8.80;;;14.70;99.90;;;;;;5033096;28;20233;-87
2023/06/17 03:07:57;;;;;;;14.17;9.23;;;14.70;99.90;;;;;;5036016;28;20550;-86
2023/06/17 03:10:24;;;;;;;13.30;9.20;;;14.60;99.90;;;;;;5022152;28;20202;-84
2023/06/17 03:12:55;;;;;;;12.43;9.10;;;14.60;99.90;;;;;;5013206;28;20715;-88
2023/06/17 03:15:23;;;;;;;15.37;9.47;;;14.50;99.90;;;;;;5011522;28;20322;-86
2023/06/17 03:17:53;;;;;;;13.03;9.07;;;14.50;99.90;;;;;;5027463;28;20206;-87
2023/06/17 03:20:20;;;;;;;14.03;9.50;;;14.50;99.90;;;;;;5019459;28;20681;-87
2023/06/17 03:22:50;;;;;;;13.03;9.37;;;14.40;99.90;;;;;;5022124;28;20967;-85
2023/06/17 03:25:17;;;;;;;12.93;9.13;;;14.40;99.90;;;;;;5022461;28;20210;-86
2023/06/17 03:27:44;;;;;;;12.87;9.50;;;14.30;99.90;;;;;;5030801;28;20714;-86
2023/06/17 03:30:12;;;;;;;15.07;9.67;;;14.30;99.90;;;;;;5038525;28;20208;-86
2023/06/17 03:32:39;;;;;;;15.60;10.60;;;14.30;99.90;;;;;;5023011;28;20217;-86
2023/06/17 03:35:07;;;;;;;12.77;9.37;;;14.40;99.90;;;;;;5022618;28;20245;-87
2023/06/17 03:37:36;;;;;;;12.80;10.07;;;14.30;99.90;;;;;;5023881;28;20206;-88
2023/06/17 03:40:09;;;;;;;18.03;10.77;;;14.30;99.90;;;;;;5030147;28;20712;-85
2023/06/17 03:42:36;;;;;;;15.23;10.77;;;14.30;99.90;;;;;;5015414;28;20264;-84
2023/06/17 03:45:03;;;;;;;18.23;11.57;;;14.20;99.90;;;;;;5038080;28;20208;-85
2023/06/17 03:47:32;;;;;;;16.93;11.53;;;14.20;99.90;;;;;;5030945;28;20240;-86
2023/06/17 03:50:00;;;;;;;13.77;10.60;;;14.10;99.90;;;;;;5043216;28;20213;-86
2023/06/17 03:52:27;;;;;;;14.57;10.27;;;14.10;99.90;;;;;;5042024;28;20201;-87
2023/06/17 03:54:54;;;;;;;14.93;10.13;;;14.10;99.90;;;;;;5024139;28;20304;-85
2023/06/17 03:57:22;;;;;;;16.63;10.13;;;14.10;99.90;;;;;;5032300;28;20227;-87
2023/06/17 03:59:49;;;;;;;15.77;11.60;;;14.20;99.90;;;;;;5042499;28;20242;-87
2023/06/17 04:02:16;;;;;;;13.20;9.70;;;14.20;99.90;;;;;;5032751;28;20244;-86
2023/06/17 04:04:46;;;;;;;18.53;10.93;;;14.20;99.90;;;;;;5031406;28;20225;-88
2023/06/17 04:07:13;;;;;;;17.00;11.77;;;14.20;99.90;;;;;;5016818;28;20625;-88
2023/06/17 04:09:40;;;;;;;15.07;10.80;;;14.20;99.90;;;;;;5033233;28;20696;-85
2023/06/17 04:12:27;;;;;;;18.80;12.07;;;14.20;99.90;;;;;;5042082;28;20250;-89
2023/06/17 04:14:54;;;;;;;18.00;11.93;;;14.20;99.90;;;;;;5039698;28;20225;-84
2023/06/17 04:17:21;;;;;;;16.87;11.40;;;14.40;99.90;;;;;;5047637;28;20236;-86
2023/06/17 04:19:56;;;;;;;15.27;11.10;;;14.30;99.90;;;;;;5027596;28;20197;-91
2023/06/17 04:22:24;;;;;;;15.50;11.80;;;14.50;99.90;;;;;;5046404;28;20205;-88
2023/06/17 04:24:55;;;;;;;15.03;11.63;;;14.50;99.90;;;;;;5048695;28;20237;-90
2023/06/17 04:27:26;;;;;;;17.30;11.97;;;14.60;99.90;;;;;;5040552;28;20258;-87
2023/06/17 04:29:56;;;;;;;16.53;11.93;;;14.70;99.90;;;;;;5030263;28;20211;-85
2023/06/17 04:32:26;;;;;;;15.80;11.50;;;14.70;99.90;;;;;;5041951;28;20213;-86
2023/06/17 04:34:53;;;;;;;13.30;10.37;;;14.80;99.90;;;;;;5035433;28;20223;-86
2023/06/17 04:37:20;;;;;;;16.87;10.70;;;14.90;99.90;;;;;;5055219;28;20593;-85
2023/06/17 04:39:48;;;;;;;15.83;11.47;;;14.90;99.90;;;;;;5049961;28;20223;-85
2023/06/17 04:42:24;;;;;;;16.27;11.03;;;14.90;99.90;;;;;;5037383;28;20347;-86
2023/06/17 04:44:52;;;;;;;17.33;11.87;;;15.10;99.90;;;;;;5022081;28;20214;-85
2023/06/17 04:47:19;;;;;;;15.77;11.37;;;15.10;99.90;;;;;;5024983;28;20229;-88
2023/06/17 04:49:47;;;;;;;14.27;10.87;;;15.20;99.90;;;;;;5026309;28;20265;-87
2023/06/17 04:52:14;;;;;;;14.97;11.43;;;15.30;99.90;;;;;;5027113;28;20217;-88
2023/06/17 04:54:41;;;;;;;16.30;10.97;;;15.30;99.90;;;;;;5024660;28;20273;-86
2023/06/17 04:57:08;;;;;;;14.80;10.63;;;15.50;99.90;;;;;;5034854;28;20255;-86
2023/06/17 04:59:41;;;;;;;15.70;10.67;;;15.50;99.90;;;;;;5042393;28;20218;-86
2023/06/17 05:02:17;;;;;;;14.93;10.60;;;15.60;99.90;;;;;;5020829;28;20214;-86
2023/06/17 05:04:44;;;;;;;13.90;10.80;;;15.70;99.90;;;;;;5036719;28;20260;-85
2023/06/17 05:07:14;;;;;;;14.10;10.63;;;15.80;99.90;;;;;;5036496;28;20212;-86
2023/06/17 05:09:44;;;;;;;14.57;10.30;;;15.80;99.90;;;;;;5043913;28;20328;-86
2023/06/17 05:12:12;;;;;;;12.90;10.33;;;15.90;99.90;;;;;;5041966;28;20427;-86
2023/06/17 05:14:46;;;;;;;13.27;9.57;;;16.00;99.90;;;;;;5023327;28;20209;-86
2023/06/17 05:17:13;;;;;;;12.53;9.60;;;16.10;99.90;;;;;;5049603;28;20249;-87
2023/06/17 05:19:42;;;;;;;16.73;9.50;;;16.30;99.90;;;;;;5041541;28;20219;-86
2023/06/17 05:22:09;;;;;;;13.47;9.23;;;16.40;99.90;;;;;;5040458;28;20214;-88
2023/06/17 05:24:42;;;;;;;13.00;9.40;;;16.50;99.90;;;;;;5048466;28;20595;-86
2023/06/17 05:27:09;;;;;;;11.97;9.33;;;17.10;99.90;;;;;;5050897;28;20205;-86
2023/06/17 05:29:47;;;;;;;10.40;7.45;;;18.10;99.90;;;;;;5036821;28;20658;-85
2023/06/17 05:32:16;;;;;;;10.45;7.75;;;19.40;99.90;;;;;;5020750;28;20225;-86
2023/06/17 05:34:46;;;;;;;11.60;8.02;;;20.80;99.90;;;;;;5020672;28;20208;-87
2023/06/17 05:37:14;;;;;;;9.57;6.93;;;21.90;99.90;;;;;;5058785;28;20224;-87
2023/06/17 05:39:42;;;;;;;7.57;6.45;;;22.90;99.90;;;;;;5041027;28;20226;-88
2023/06/17 05:42:13;;;;;;;9.65;7.32;;;23.70;99.90;;;;;;5038418;28;20244;-87
2023/06/17 05:44:40;;;;;;;9.85;6.80;;;24.60;99.90;;;;;;5041310;28;20217;-87
2023/06/17 05:47:11;;;;;;;7.93;6.85;;;25.10;99.90;;;;;;5053789;28;20210;-86
2023/06/17 05:49:44;;;;;;;8.02;6.55;;;25.80;99.90;;;;;;5049486;28;20237;-86
2023/06/17 05:52:17;;;;;;;7.32;5.80;;;26.40;99.90;;;;;;5041201;28;20216;-87
2023/06/17 05:54:48;;;;;;;6.45;5.53;;;26.90;99.90;;;;;;5048479;28;20242;-87
2023/06/17 05:57:16;;;;;;;7.07;5.32;;;27.20;99.90;;;;;;5045886;28;20214;-87
2023/06/17 05:59:47;;;;;;;5.97;5.20;;;27.80;99.90;;;;;;5059380;28;20201;-87
2023/06/17 06:02:18;;;;;;;7.18;5.20;;;28.20;99.90;;;;;;5032369;28;20201;-88
2023/06/17 06:04:47;;;;;;;5.75;5.15;;;28.50;99.80;;;;;;5038130;28;20240;-87
2023/06/17 06:07:14;;;;;;;7.32;5.57;;;29.00;99.50;;;;;;5022981;28;20214;-88
2023/06/17 06:09:48;;;;;;;5.68;5.07;;;29.10;98.90;;;;;;5022618;28;20646;-89
2023/06/17 06:12:20;;;;;;;5.47;4.95;;;29.20;97.10;;;;;;5025816;28;20217;-89
2023/06/17 06:15:03;;;;;;;6.75;5.55;;;29.30;96.30;;;;;;5037087;28;20327;-88
2023/06/17 06:17:33;;;;;;;7.53;5.10;;;29.40;95.80;;;;;;5037569;28;20253;-90
2023/06/17 06:20:00;;;;;;;7.45;5.25;;;29.60;95.30;;;;;;5036204;28;20202;-89
2023/06/17 06:22:28;;;;;;;6.90;5.60;;;29.80;94.40;;;;;;5023682;28;20209;-88
2023/06/17 06:24:55;;;;;;;6.55;5.10;;;29.80;94.00;;;;;;5036951;28;20221;-88
2023/06/17 06:27:22;;;;;;;7.10;5.00;;;29.90;93.30;;;;;;5039413;28;20212;-88
2023/06/17 06:29:54;;;;;;;5.75;5.13;;;30.20;92.60;;;;;;5041965;28;20597;-87
2023/06/17 06:32:21;;;;;;;6.07;4.93;;;30.40;92.10;;;;;;5018767;28;20670;-87
2023/06/17 06:34:48;;;;;;;9.10;5.15;;;30.60;91.60;;;;;;5041072;28;20210;-88
2023/06/17 06:37:15;;;;;;;6.75;5.13;;;30.70;90.40;;;;;;5049736;28;20209;-88
2023/06/17 06:39:42;;;;;;;7.25;5.18;;;30.80;90.00;;;;;;5025665;28;20292;-87
2023/06/17 06:42:11;;;;;;;4.95;4.40;;;30.90;89.10;;;;;;5043641;28;20336;-87
2023/06/17 06:44:38;;;;;;;4.82;4.30;;;30.90;88.80;;;;;;5047471;28;20296;-87
2023/06/17 06:47:05;;;;;;;5.05;4.20;;;31.20;88.30;;;;;;5046866;28;20212;-87
2023/06/17 06:49:35;;;;;;;5.38;4.32;;;31.40;86.80;;;;;;5042329;28;20224;-87
2023/06/17 06:52:05;;;;;;;5.38;4.20;;;31.50;85.20;;;;;;5014211;28;20621;-88
2023/06/17 06:54:32;;;;;;;5.30;4.40;;;31.60;84.50;;;;;;5040065;28;20267;-89
2023/06/17 06:57:06;;;;;;;5.90;4.35;;;31.70;84.80;;;;;;5031995;28;20208;-90
2023/06/17 06:59:33;;;;;;;6.63;4.88;;;31.50;84.30;;;;;;5021245;28;20206;-85
2023/06/17 07:05:08;;;;;;;6.53;4.40;;;31.60;83.90;;;;;;5054638;28;20237;-89
2023/06/17 07:07:39;;;;;;;4.55;4.00;;;31.10;85.10;;;;;;5042339;28;20686;-87
2023/06/17 07:10:07;;;;;;;6.07;4.55;;;31.10;85.40;;;;;;5050161;28;20229;-88
2023/06/17 07:12:35;;;;;;;5.30;4.60;;;31.50;84.30;;;;;;5056909;28;20205;-88
2023/06/17 07:15:03;;;;;;;5.35;4.40;;;31.80;82.50;;;;;;5054609;28;20208;-87
2023/06/17 07:17:30;;;;;;;5.50;3.67;;;32.10;81.90;;;;;;5046285;28;20213;-88
2023/06/17 07:20:02;;;;;;;4.43;3.92;;;32.30;80.20;;;;;;5058473;28;20287;-88
2023/06/17 07:22:30;;;;;;;5.00;3.80;;;32.60;79.30;;;;;;5048623;28;20210;-87
2023/06/17 07:24:57;;;;;;;5.07;4.15;;;32.70;78.30;;;;;;5045606;28;20217;-87
2023/06/17 07:27:24;;;;;;;4.72;4.15;;;32.80;77.70;;;;;;5025075;28;20205;-87
2023/06/17 07:29:53;;;;;;;5.50;4.13;;;32.80;76.70;;;;;;5028095;28;20263;-87
2023/06/17 07:32:22;;;;;;;8.23;4.35;;;32.80;76.00;;;;;;5046810;28;20212;-88
2023/06/17 07:34:53;;;;;;;5.53;3.97;;;32.60;75.60;;;;;;5023458;28;20205;-90
2023/06/17 07:37:23;;;;;;;6.57;4.78;;;32.70;74.60;;;;;;5028408;28;20212;-86
2023/06/17 07:39:57;;;;;;;4.80;4.18;;;32.90;74.20;;;;;;5034540;28;20213;-90
2023/06/17 07:42:28;;;;;;;4.35;3.95;;;33.00;73.70;;;;;;5019161;28;20233;-89
2023/06/17 07:44:58;;;;;;;4.63;4.15;;;32.80;73.60;;;;;;5017126;28;20212;-86
2023/06/17 07:47:26;;;;;;;5.30;4.07;;;33.10;73.10;;;;;;5034502;28;20201;-87
2023/06/17 07:49:56;;;;;;;5.40;4.82;;;33.30;72.30;;;;;;5016841;28;20594;-88
2023/06/17 07:52:23;;;;;;;7.40;4.68;;;33.30;72.20;;;;;;5017361;28;20209;-86
2023/06/17 07:54:59;;;;;;;6.43;5.00;;;33.30;71.70;;;;;;5023867;28;20219;-88
2023/06/17 07:57:32;;;;;;;5.07;4.30;;;33.20;70.30;;;;;;5045308;28;20195;-88
2023/06/17 08:00:01;;;;;;;7.68;4.82;;;32.80;71.20;;;;;;5055021;28;20604;-87
2023/06/17 08:02:41;;;;;;;4.95;4.32;;;33.00;71.70;;;;;;5046282;28;20675;-88
2023/06/17 08:05:09;;;;;;;5.30;4.80;;;33.30;71.60;;;;;;5055521;28;20212;-87
2023/06/17 08:07:44;;;;;;;7.40;4.80;;;33.30;71.60;;;;;;5036507;28;20204;-87
2023/06/17 08:10:12;;;;;;;5.97;4.78;;;33.40;71.10;;;;;;5041525;28;20265;-89
2023/06/17 08:12:42;;;;;;;6.22;4.82;;;33.50;70.40;;;;;;5041504;28;20205;-87
2023/06/17 08:15:13;;;;;;;5.70;4.53;;;33.50;69.80;;;;;;5020766;28;20235;-85
2023/06/17 08:17:43;;;;;;;5.88;4.40;;;33.40;69.80;;;;;;5047601;28;20221;-89
2023/06/17 08:20:13;;;;;;;5.20;4.70;;;33.50;70.40;;;;;;5033811;28;20577;-87
2023/06/17 08:22:41;;;;;;;5.78;5.22;;;32.80;70.60;;;;;;5043952;28;20284;-86
2023/06/17 08:25:20;;;;;;;5.13;4.40;;;32.70;71.20;;;;;;5045578;28;20218;-88
2023/06/17 08:27:50;;;;;;;5.03;4.53;;;33.00;71.90;;;;;;5039744;28;20193;-89
2023/06/17 08:30:18;;;;;;;5.10;4.60;;;33.00;70.90;;;;;;5052890;28;20240;-86
2023/06/17 08:32:48;;;;;;;4.85;4.40;;;33.00;69.40;;;;;;5028134;28;20211;-86
2023/06/17 08:35:18;;;;;;;6.57;4.68;;;33.20;69.20;;;;;;5051510;28;20300;-87
2023/06/17 08:37:47;;;;;;;6.22;4.30;;;33.10;68.90;;;;;;5060178;28;20211;-89
2023/06/17 08:40:22;;;;;;;5.60;4.22;;;32.90;69.00;;;;;;5059671;28;20220;-89
2023/06/17 08:43:01;;;;;;;5.25;4.60;;;32.60;69.00;;;;;;5025511;28;20240;-88
2023/06/17 08:45:30;;;;;;;4.40;4.00;;;32.70;68.40;;;;;;5048101;28;20235;-87
2023/06/17 08:47:58;;;;;;;4.47;4.07;;;32.60;67.80;;;;;;5052102;28;20205;-87
2023/06/17 08:50:28;;;;;;;4.50;3.85;;;32.60;67.70;;;;;;5026987;28;20233;-87
2023/06/17 08:52:56;;;;;;;4.65;4.10;;;32.60;67.50;;;;;;5047576;28;20214;-89
2023/06/17 08:55:26;;;;;;;6.32;4.30;;;32.50;67.40;;;;;;5030584;28;20201;-86
2023/06/17 08:57:56;;;;;;;5.95;4.45;;;32.50;67.60;;;;;;5032745;28;20205;-91
2023/06/17 09:00:23;;;;;;;5.80;4.25;;;32.50;68.20;;;;;;5040986;28;20223;-87
2023/06/17 09:02:54;;;;;;;5.20;4.50;;;32.30;67.90;;;;;;5049409;28;20209;-88
2023/06/17 09:05:34;;;;;;;6.78;4.40;;;32.00;67.80;;;;;;5037209;28;20213;-87
2023/06/17 09:08:04;;;;;;;5.50;4.25;;;32.20;68.90;;;;;;5052785;28;20240;-89
2023/06/17 09:11:05;;;;;;;4.93;4.32;;;32.30;68.10;;;;;;5024448;28;20229;-89
2023/06/17 09:13:37;;;;;;;5.15;4.25;;;32.20;67.50;;;;;;5026728;28;20217;-88
2023/06/17 09:16:05;;;;;;;5.53;4.95;;;32.20;68.00;;;;;;5049109;28;20236;-87
2023/06/17 09:18:36;;;;;;;5.45;4.60;;;31.80;67.70;;;;;;5050469;28;20441;-89
2023/06/17 09:21:05;;;;;;;5.20;3.78;;;31.60;69.00;;;;;;5047606;28;20217;-87
2023/06/17 09:23:41;;;;;;;5.10;4.28;;;31.60;68.70;;;;;;5029168;28;20237;-87
2023/06/17 09:26:10;;;;;;;5.43;4.35;;;31.70;70.60;;;;;;5021313;28;20690;-87
2023/06/17 09:28:49;;;;;;;6.28;4.18;;;31.80;69.20;;;;;;5057341;28;20216;-86
2023/06/17 09:31:18;;;;;;;5.15;4.47;;;31.90;68.70;;;;;;5061858;28;20654;-87
2023/06/17 09:33:47;;;;;;;4.85;4.35;;;31.90;68.80;;;;;;5048540;28;20228;-87
2023/06/17 09:36:17;;;;;;;5.93;4.30;;;31.80;69.30;;;;;;5052850;28;20284;-87
2023/06/17 09:38:47;;;;;;;6.00;4.45;;;31.80;69.00;;;;;;5035708;28;20225;-87
2023/06/17 09:41:18;;;;;;;4.80;4.40;;;31.60;69.50;;;;;;5042327;28;20209;-86
2023/06/17 09:43:53;;;;;;;6.80;4.68;;;31.40;70.30;;;;;;5022714;28;20666;-87
2023/06/17 09:46:35;;;;;;;5.53;4.38;;;31.10;71.10;;;;;;5040187;28;20294;-86
2023/06/17 09:49:21;;;;;;;5.70;4.28;;;31.10;70.90;;;;;;5036440;28;20607;-87
2023/06/17 09:51:51;;;;;;;5.15;4.40;;;31.00;70.50;;;;;;5040967;28;20221;-86
2023/06/17 09:54:19;;;;;;;5.68;4.68;;;31.00;70.60;;;;;;5050355;28;20232;-86
2023/06/17 09:56:48;;;;;;;5.60;4.20;;;31.00;70.80;;;;;;5035191;28;20298;-87
2023/06/17 09:59:18;;;;;;;5.75;4.22;;;31.00;70.60;;;;;;5040139;28;20241;-87
2023/06/17 10:01:46;;;;;;;5.13;4.57;;;30.90;71.20;;;;;;5030368;28;20224;-86
2023/06/17 10:04:13;;;;;;;5.85;4.55;;;30.90;71.20;;;;;;5038314;28;20836;-85
2023/06/17 10:06:43;;;;;;;4.93;4.15;;;31.00;70.20;;;;;;5045113;28;20662;-85
2023/06/17 10:09:13;;;;;;;5.30;4.00;;;30.90;69.70;;;;;;5038510;28;20318;-85
2023/06/17 10:11:54;;;;;;;5.00;3.95;;;31.00;70.20;;;;;;5040827;28;20227;-85
2023/06/17 10:14:30;;;;;;;5.00;4.07;;;30.90;70.20;;;;;;5040213;28;20376;-85
2023/06/17 10:17:01;;;;;;;4.82;4.15;;;31.00;71.20;;;;;;5038325;28;20725;-85
2023/06/17 10:19:33;;;;;;;5.45;4.15;;;31.00;70.70;;;;;;5019428;28;20267;-88
2023/06/17 10:22:04;;;;;;;5.50;4.20;;;31.10;71.20;;;;;;5039455;28;20213;-89
2023/06/17 10:24:33;;;;;;;5.88;4.40;;;31.30;71.40;;;;;;5038863;28;20217;-85
2023/06/17 10:27:05;;;;;;;5.30;4.10;;;31.30;70.10;;;;;;5040247;28;20300;-89
2023/06/17 10:29:33;;;;;;;4.85;4.03;;;31.30;68.90;;;;;;5041610;28;20226;-84
2023/06/17 10:32:22;;;;;;;6.07;4.40;;;31.30;69.00;;;;;;5044474;28;20205;-87
2023/06/17 10:35:05;;;;;;;5.30;4.28;;;31.30;71.00;;;;;;5051686;28;20213;-86
2023/06/17 10:37:44;;;;;;;5.03;4.20;;;31.30;68.80;;;;;;5046369;28;20197;-85
2023/06/17 10:40:20;;;;;;;5.93;3.95;;;31.30;68.20;;;;;;5048905;28;20205;-85
2023/06/17 10:43:02;;;;;;;5.45;4.10;;;31.30;68.30;;;;;;5026940;28;20236;-86
2023/06/17 10:45:46;;;;;;;4.40;3.83;;;31.30;67.90;;;;;;5036064;28;20709;-86
2023/06/17 10:48:16;;;;;;;5.15;4.15;;;31.30;68.60;;;;;;5043131;28;20741;-85
2023/06/17 10:51:09;;;;;;;4.97;4.10;;;31.20;68.40;;;;;;5039439;28;20276;-86
2023/06/17 10:53:49;;;;;;;5.43;4.32;;;31.30;68.40;;;;;;5040507;28;20228;-87
2023/06/17 10:56:16;;;;;;;5.15;4.65;;;31.10;68.50;;;;;;5044269;28;20299;-87
2023/06/17 10:59:34;;;;;;;;;;;;;;;;;;;;;
2023/06/17 11:02:21;;;;;;;6.38;4.90;;;31.10;68.10;;;;;;5029324;28;20209;-84
2023/06/17 11:04:48;;;;;;;4.72;4.32;;;31.10;68.00;;;;;;5039410;28;20212;-90
2023/06/17 11:07:25;;;;;;;5.03;4.50;;;31.00;68.70;;;;;;5025688;28;20261;-86
2023/06/17 11:09:52;;;;;;;4.70;4.20;;;31.10;68.80;;;;;;5021503;28;20584;-87
2023/06/17 11:12:19;;;;;;;5.15;4.32;;;31.00;68.30;;;;;;5045841;28;20703;-86
2023/06/17 11:14:46;;;;;;;6.45;4.50;;;31.00;67.80;;;;;;5038441;28;20206;-86
2023/06/17 11:17:13;;;;;;;8.25;5.28;;;30.80;68.10;;;;;;5046115;28;20324;-88
2023/06/17 11:19:40;;;;;;;5.90;4.35;;;30.80;67.90;;;;;;5043180;28;20240;-87
2023/06/17 11:22:07;;;;;;;4.63;3.85;;;30.80;67.70;;;;;;5044003;28;20255;-87
2023/06/17 11:24:37;;;;;;;5.38;4.05;;;30.90;67.30;;;;;;5025407;28;20228;-89
2023/06/17 11:27:06;;;;;;;4.82;4.05;;;31.10;67.50;;;;;;5041579;28;20228;-86
2023/06/17 11:29:33;;;;;;;5.45;4.70;;;31.00;67.70;;;;;;5049949;28;20612;-87
2023/06/17 11:32:02;;;;;;;6.72;4.50;;;31.00;68.30;;;;;;5041853;28;20223;-89
2023/06/17 11:34:32;;;;;;;5.70;4.47;;;30.90;68.00;;;;;;5050637;28;20732;-90
2023/06/17 11:37:06;;;;;;;5.10;4.20;;;31.10;67.40;;;;;;5035567;28;20201;-85
2023/06/17 11:39:35;;;;;;;4.30;3.90;;;30.80;67.30;;;;;;5034265;28;20224;-85
2023/06/17 11:42:06;;;;;;;4.75;4.25;;;31.10;67.70;;;;;;5042178;28;20702;-87
2023/06/17 11:44:35;;;;;;;6.40;4.13;;;31.10;66.70;;;;;;5022511;28;20206;-88
2023/06/17 11:47:07;;;;;;;5.93;4.30;;;31.20;66.40;;;;;;5046602;28;20215;-89
2023/06/17 11:49:35;;;;;;;4.63;4.22;;;31.20;66.60;;;;;;5023968;28;20213;-86
2023/06/17 11:52:06;;;;;;;5.47;3.90;;;31.30;66.20;;;;;;5026705;28;20715;-87
2023/06/17 11:54:34;;;;;;;5.20;3.97;;;31.30;66.40;;;;;;5018716;28;20303;-85
2023/06/17 11:57:04;;;;;;;4.38;3.85;;;31.30;66.00;;;;;;5027103;28;20585;-89
2023/06/17 11:59:31;;;;;;;4.78;4.13;;;31.30;65.20;;;;;;5037993;28;20304;-87
2023/06/17 12:02:00;;;;;;;4.40;3.83;;;31.20;65.00;;;;;;5019965;28;20202;-87
2023/06/17 12:04:30;;;;;;;5.88;4.47;;;31.30;65.00;;;;;;5046448;28;20239;-88
2023/06/17 12:06:57;;;;;;;5.22;4.00;;;31.30;65.10;;;;;;5049556;28;20218;-86
2023/06/17 12:09:27;;;;;;;4.50;4.10;;;31.20;64.60;;;;;;5028046;28;20222;-85
2023/06/17 12:11:54;;;;;;;5.03;4.53;;;31.20;64.70;;;;;;5018512;28;20321;-88
2023/06/17 12:14:23;;;;;;;4.68;4.28;;;31.30;64.80;;;;;;5042016;28;20208;-86
2023/06/17 12:16:53;;;;;;;4.55;4.05;;;31.40;64.20;;;;;;5054271;28;20864;-87
2023/06/17 12:19:24;;;;;;;6.65;4.60;;;31.50;64.20;;;;;;5024426;28;20210;-86
2023/06/17 12:21:53;;;;;;;4.75;4.18;;;31.60;64.90;;;;;;5040976;28;20663;-87
2023/06/17 12:24:21;;;;;;;4.95;4.28;;;31.70;64.60;;;;;;5041827;28;20225;-86
2023/06/17 12:26:48;;;;;;;5.15;4.13;;;31.70;64.20;;;;;;5043480;28;20216;-86
2023/06/17 12:29:18;;;;;;;3.92;3.50;;;31.70;64.30;;;;;;5042099;28;20214;-86
2023/06/17 12:31:52;;;;;;;4.65;4.20;;;31.80;64.40;;;;;;5041717;28;20239;-88
2023/06/17 12:34:23;;;;;;;6.00;4.53;;;31.80;65.10;;;;;;5040955;28;20214;-88
2023/06/17 12:36:51;;;;;;;4.65;4.00;;;31.80;65.60;;;;;;5033333;28;20206;-88
2023/06/17 12:39:23;;;;;;;5.22;4.40;;;31.80;64.50;;;;;;5011608;28;20236;-87
2023/06/17 12:41:50;;;;;;;4.50;3.85;;;31.90;64.20;;;;;;5039904;28;20218;-87
2023/06/17 12:44:17;;;;;;;4.95;3.90;;;31.90;64.00;;;;;;5036275;28;20219;-86
2023/06/17 12:46:47;;;;;;;5.68;4.30;;;31.80;64.00;;;;;;5019477;28;20559;-86
2023/06/17 12:49:14;;;;;;;4.82;3.90;;;31.90;63.60;;;;;;5014482;28;20228;-86
2023/06/17 12:51:41;;;;;;;5.38;3.92;;;31.90;63.80;;;;;;5028863;28;20321;-86
2023/06/17 12:54:08;;;;;;;3.95;3.65;;;31.90;63.50;;;;;;5028119;28;20218;-86
2023/06/17 12:56:35;;;;;;;5.88;4.18;;;31.80;62.80;;;;;;5041456;28;20198;-85
2023/06/17 12:59:06;;;;;;;6.43;4.47;;;31.80;62.70;;;;;;5043475;28;20594;-87
2023/06/17 13:01:35;;;;;;;4.13;3.72;;;31.70;62.70;;;;;;5038614;28;20216;-85